createdAt,value
2024-01-24T00:02:09.027Z,4.10
2024-01-24T00:07:00.613Z,4.30
2024-01-24T00:11:52.281Z,3.22
2024-01-24T00:16:43.880Z,4.50
2024-01-24T00:21:38.349Z,4.88
2024-01-24T00:26:29.995Z,6.22
2024-01-24T00:31:21.752Z,4.57
2024-01-24T00:36:13.401Z,5.20
2024-01-24T00:41:05.198Z,3.30
2024-01-24T00:45:57.313Z,4.18
2024-01-24T00:50:48.948Z,4.80
2024-01-24T00:55:40.516Z,5.60
2024-01-24T01:00:32.128Z,6.22
2024-01-24T01:05:23.771Z,5.78
2024-01-24T01:10:15.459Z,4.97
2024-01-24T01:15:07.297Z,5.40
2024-01-24T01:19:59.491Z,5.50
2024-01-24T01:24:51.130Z,4.50
2024-01-24T01:29:42.822Z,6.40
2024-01-24T01:34:34.569Z,4.65
2024-01-24T01:39:26.358Z,3.83
2024-01-24T01:44:18.599Z,4.25
2024-01-24T01:49:10.607Z,4.03
2024-01-24T01:54:02.619Z,3.58
2024-01-24T01:58:54.374Z,3.88
2024-01-24T02:03:47.532Z,2.28
2024-01-24T02:08:41.029Z,1.92
2024-01-24T02:13:33.130Z,1.88
2024-01-24T02:18:25.176Z,1.80
2024-01-24T02:23:19.269Z,2.80
2024-01-24T02:28:10.863Z,2.85
2024-01-24T02:33:03.133Z,3.42
2024-01-24T02:37:55.335Z,2.63
2024-01-24T02:42:46.956Z,2.47
2024-01-24T02:47:38.705Z,2.33
2024-01-24T02:52:32.839Z,2.28
2024-01-24T02:57:24.460Z,1.95
2024-01-24T03:02:16.060Z,2.35
2024-01-24T03:07:07.772Z,2.45
2024-01-24T03:11:59.427Z,2.65
2024-01-24T03:16:51.152Z,1.38
2024-01-24T03:21:43.098Z,1.50
2024-01-24T03:26:34.752Z,1.98
2024-01-24T03:31:26.307Z,1.60
2024-01-24T03:36:17.901Z,1.60
2024-01-24T03:41:09.563Z,2.53
2024-01-24T03:46:01.857Z,1.85
2024-01-24T03:50:53.534Z,1.50
2024-01-24T03:55:45.261Z,1.10
2024-01-24T04:00:36.962Z,1.30
2024-01-24T04:05:28.656Z,3.15
2024-01-24T04:10:20.648Z,1.63
2024-01-24T04:15:12.309Z,1.10
2024-01-24T04:20:04.320Z,1.65
2024-01-24T04:24:56.099Z,1.08
2024-01-24T04:29:47.796Z,0.95
2024-01-24T04:34:39.451Z,1.70
2024-01-24T04:39:31.642Z,1.73
2024-01-24T04:44:23.186Z,1.42
2024-01-24T04:49:26.236Z,1.25
2024-01-24T04:54:26.319Z,1.60
2024-01-24T04:59:17.843Z,2.03
2024-01-24T05:04:10.836Z,1.23
2024-01-24T05:09:03.781Z,0.98
2024-01-24T05:13:56.960Z,1.50
2024-01-24T05:18:48.711Z,1.60
2024-01-24T05:23:41.721Z,1.38
2024-01-24T05:28:33.374Z,0.90
2024-01-24T05:33:25.063Z,1.30
2024-01-24T05:38:16.643Z,1.67
2024-01-24T05:43:08.299Z,1.90
2024-01-24T05:47:59.973Z,1.55
2024-01-24T05:52:52.608Z,1.80
2024-01-24T05:57:47.458Z,1.63
2024-01-24T06:02:39.131Z,1.27
2024-01-24T06:07:31.671Z,1.13
2024-01-24T06:12:23.747Z,1.58
2024-01-24T06:17:15.389Z,1.10
2024-01-24T06:22:07.140Z,1.67
2024-01-24T06:26:58.852Z,1.05
2024-01-24T06:31:51.403Z,1.15
2024-01-24T06:36:43.026Z,2.42
2024-01-24T06:41:34.721Z,3.42
2024-01-24T06:46:29.135Z,1.17
2024-01-24T06:51:20.788Z,1.30
2024-01-24T06:56:12.372Z,1.38
2024-01-24T07:01:04.059Z,1.55
2024-01-24T07:05:55.688Z,1.52
2024-01-24T07:10:47.244Z,1.45
2024-01-24T07:15:39.082Z,1.10
2024-01-24T07:20:30.977Z,1.00
2024-01-24T07:25:22.841Z,1.63
2024-01-24T07:30:15.224Z,0.80
2024-01-24T07:35:07.326Z,1.02
2024-01-24T07:39:59.017Z,2.00
2024-01-24T07:44:50.859Z,1.30
2024-01-24T07:49:43.241Z,0.95
2024-01-24T07:54:35.338Z,2.45
2024-01-24T07:59:27.108Z,1.58
2024-01-24T08:04:19.162Z,1.20
2024-01-24T08:09:12.521Z,1.38
2024-01-24T08:14:05.290Z,1.27
2024-01-24T08:18:57.877Z,2.30
2024-01-24T08:23:51.690Z,0.82
2024-01-24T08:28:46.339Z,1.00
2024-01-24T08:33:38.152Z,1.55
2024-01-24T08:38:31.450Z,1.10
2024-01-24T08:43:23.096Z,1.02
2024-01-24T08:48:15.550Z,1.05
2024-01-24T08:53:07.301Z,1.05
2024-01-24T08:57:59.032Z,1.48
2024-01-24T09:02:50.787Z,1.58
2024-01-24T09:07:43.009Z,1.13
2024-01-24T09:12:34.721Z,1.33
2024-01-24T09:17:27.219Z,1.08
2024-01-24T09:22:18.899Z,0.95
2024-01-24T09:27:10.978Z,1.42
2024-01-24T09:32:02.541Z,1.10
2024-01-24T09:36:55.464Z,1.67
2024-01-24T09:41:52.047Z,1.38
2024-01-24T09:46:43.833Z,1.20
2024-01-24T09:51:36.412Z,1.20
2024-01-24T09:56:30.291Z,1.38
2024-01-24T10:01:23.230Z,1.35
2024-01-24T10:06:17.631Z,1.13
2024-01-24T10:11:10.699Z,1.40
2024-01-24T10:16:09.375Z,0.93
2024-01-24T10:21:06.492Z,1.25
2024-01-24T10:25:59.191Z,1.63
2024-01-24T10:30:51.714Z,1.60
2024-01-24T10:35:44.671Z,0.98
2024-01-24T10:40:38.532Z,1.90
2024-01-24T10:45:32.648Z,1.10
2024-01-24T10:50:26.187Z,1.13
2024-01-24T10:55:18.850Z,1.98
2024-01-24T11:00:12.793Z,2.15
2024-01-24T11:05:09.497Z,1.88
2024-01-24T11:10:17.458Z,1.85
2024-01-24T11:15:14.896Z,1.50
2024-01-24T11:20:08.155Z,1.80
2024-01-24T11:25:00.621Z,1.20
2024-01-24T11:29:53.681Z,1.42
2024-01-24T11:34:45.729Z,1.60
2024-01-24T11:39:41.187Z,1.40
2024-01-24T11:44:33.386Z,2.30
2024-01-24T11:49:27.608Z,1.98
2024-01-24T11:54:19.946Z,2.22
2024-01-24T11:59:12.533Z,1.90
2024-01-24T12:04:05.800Z,2.25
2024-01-24T12:08:58.551Z,2.85
2024-01-24T12:13:51.220Z,1.75
2024-01-24T12:18:42.975Z,1.58
2024-01-24T12:23:35.816Z,1.67
2024-01-24T12:28:27.784Z,1.23
2024-01-24T12:33:20.374Z,1.40
2024-01-24T12:38:12.662Z,2.20
2024-01-24T12:43:06.214Z,1.92
2024-01-24T12:47:57.982Z,1.80
2024-01-24T12:52:50.004Z,1.70
2024-01-24T12:57:43.248Z,1.52
2024-01-24T13:02:35.804Z,1.45
2024-01-24T13:07:28.137Z,1.90
2024-01-24T13:12:19.832Z,1.17
2024-01-24T13:17:11.544Z,1.60
2024-01-24T13:22:03.281Z,1.08
2024-01-24T13:26:55.989Z,1.95
2024-01-24T13:31:48.931Z,0.93
2024-01-24T13:36:42.404Z,1.10
2024-01-24T13:41:34.066Z,0.85
2024-01-24T13:46:25.880Z,1.73
2024-01-24T13:51:19.227Z,1.15
2024-01-24T13:56:17.230Z,2.25
2024-01-24T14:01:09.238Z,2.42
2024-01-24T14:06:01.311Z,1.50
2024-01-24T14:10:53.781Z,1.20
2024-01-24T14:15:45.612Z,1.88
2024-01-24T14:20:37.247Z,1.92
2024-01-24T14:25:28.854Z,1.75
2024-01-24T14:30:20.521Z,1.75
2024-01-24T14:35:15.765Z,1.52
2024-01-24T14:40:08.318Z,1.50
2024-01-24T14:45:02.458Z,2.83
2024-01-24T14:49:54.154Z,2.05
2024-01-24T14:54:46.269Z,2.20
2024-01-24T14:59:38.361Z,2.00
2024-01-24T15:04:30.072Z,1.88
2024-01-24T15:09:22.241Z,2.25
2024-01-24T15:14:14.212Z,1.98
2024-01-24T15:19:05.861Z,1.98
2024-01-24T15:23:57.659Z,2.35
2024-01-24T15:28:49.282Z,3.30
2024-01-24T15:33:42.796Z,2.60
2024-01-24T15:38:36.403Z,2.08
2024-01-24T15:43:28.312Z,1.88
2024-01-24T15:48:20.196Z,1.88
2024-01-24T15:53:12.210Z,1.15
2024-01-24T15:58:04.139Z,1.73
2024-01-24T16:02:56.657Z,1.20
2024-01-24T16:07:48.401Z,1.25
2024-01-24T16:12:40.592Z,1.05
2024-01-24T16:17:33.158Z,1.10
2024-01-24T16:22:32.934Z,1.27
2024-01-24T16:27:28.075Z,1.92
2024-01-24T16:32:20.545Z,1.05
2024-01-24T16:37:12.175Z,2.33
2024-01-24T16:42:06.385Z,1.50
2024-01-24T16:46:58.195Z,1.65
2024-01-24T16:51:50.765Z,1.88
2024-01-24T16:56:42.795Z,1.92
2024-01-24T17:01:34.788Z,1.13
2024-01-24T17:06:26.717Z,1.10
2024-01-24T17:11:19.889Z,1.25
2024-01-24T17:16:11.528Z,0.90
2024-01-24T17:21:05.178Z,1.27
2024-01-24T17:25:57.746Z,1.02
2024-01-24T17:30:49.866Z,0.98
2024-01-24T17:35:43.681Z,0.80
2024-01-24T17:40:35.524Z,1.23
2024-01-24T17:45:27.193Z,1.42
2024-01-24T17:50:19.197Z,1.40
2024-01-24T17:55:11.479Z,1.60
2024-01-24T18:00:06.086Z,1.80
2024-01-24T18:04:58.491Z,1.35
2024-01-24T18:09:54.058Z,1.77
2024-01-24T18:14:45.677Z,1.50
2024-01-24T18:19:37.348Z,2.60
2024-01-24T18:24:29.349Z,1.08
2024-01-24T18:29:20.939Z,2.10
2024-01-24T18:34:12.630Z,6.30
2024-01-24T18:39:04.643Z,1.88
2024-01-24T18:43:56.245Z,1.58
2024-01-24T18:48:48.662Z,1.30
2024-01-24T18:53:44.817Z,1.05
2024-01-24T18:58:36.690Z,1.58
2024-01-24T19:03:28.865Z,1.63
2024-01-24T19:08:20.804Z,1.48
2024-01-24T19:13:12.481Z,1.35
2024-01-24T19:18:10.871Z,1.70
2024-01-24T19:23:05.968Z,2.60
2024-01-24T19:27:57.593Z,2.75
2024-01-24T19:32:49.363Z,1.90
2024-01-24T19:37:41.230Z,1.23
2024-01-24T19:42:32.868Z,1.92
2024-01-24T19:47:29.952Z,2.17
2024-01-24T19:52:21.967Z,1.88
2024-01-24T19:57:14.134Z,2.10
2024-01-24T20:02:05.767Z,1.52
2024-01-24T20:06:57.718Z,2.15
2024-01-24T20:11:49.369Z,3.42
2024-01-24T20:16:41.542Z,1.70
2024-01-24T20:21:38.958Z,3.75
2024-01-24T20:26:30.610Z,2.60
2024-01-24T20:36:28.162Z,3.28
2024-01-24T20:41:19.823Z,2.42
2024-01-24T20:46:11.990Z,3.05
2024-01-24T20:51:04.882Z,1.17
2024-01-24T20:55:56.978Z,2.40
2024-01-24T21:00:48.889Z,1.23
2024-01-24T21:05:40.662Z,0.90
2024-01-24T21:10:32.917Z,0.90
2024-01-24T21:15:24.675Z,0.93
2024-01-24T21:20:16.515Z,1.55
2024-01-24T21:25:09.138Z,0.90
2024-01-24T21:30:01.101Z,2.40
2024-01-24T21:34:53.139Z,2.10
2024-01-24T21:39:44.814Z,1.95
2024-01-24T21:44:36.469Z,3.58
2024-01-24T21:49:29.238Z,3.08
2024-01-24T21:54:21.093Z,4.32
2024-01-24T21:59:12.780Z,4.43
2024-01-24T22:04:04.890Z,2.63
2024-01-24T22:09:00.515Z,1.20
2024-01-24T22:13:52.185Z,1.15
2024-01-24T22:18:47.997Z,1.83
2024-01-24T22:23:41.047Z,1.73
2024-01-24T22:28:32.733Z,3.28
2024-01-24T22:33:24.697Z,1.70
2024-01-24T22:38:16.570Z,1.80
2024-01-24T22:43:08.286Z,1.65
2024-01-24T22:48:01.670Z,2.47
2024-01-24T22:52:53.426Z,1.65
2024-01-24T22:57:50.160Z,2.08
2024-01-24T23:02:42.403Z,1.00
2024-01-24T23:07:34.168Z,1.75
2024-01-24T23:12:26.180Z,2.13
2024-01-24T23:17:18.114Z,1.52
2024-01-24T23:22:09.773Z,1.40
2024-01-24T23:27:01.511Z,3.50
2024-01-24T23:31:53.094Z,3.30
2024-01-24T23:36:45.477Z,1.40
2024-01-24T23:41:40.212Z,1.48
2024-01-24T23:46:34.512Z,1.88
2024-01-24T23:51:26.895Z,2.10
2024-01-24T23:56:18.655Z,1.98
